createdAt,value
2019-03-11T00:01:36.892Z,7.64
2019-03-11T00:04:09.138Z,7.76
2019-03-11T00:06:40.838Z,7.79
2019-03-11T00:09:12.639Z,7.77
2019-03-11T00:11:43.891Z,7.74
2019-03-11T00:14:15.256Z,7.60
2019-03-11T00:16:46.523Z,7.59
2019-03-11T00:19:17.855Z,7.63
2019-03-11T00:21:49.122Z,7.50
2019-03-11T00:24:20.465Z,7.63
2019-03-11T00:26:51.788Z,7.69
2019-03-11T00:29:23.144Z,7.69
2019-03-11T00:31:54.526Z,7.58
2019-03-11T00:34:25.946Z,7.53
2019-03-11T00:36:57.184Z,7.62
2019-03-11T00:39:28.927Z,7.64
2019-03-11T00:42:00.664Z,7.69
2019-03-11T00:44:32.068Z,7.61
2019-03-11T00:47:03.317Z,7.59
2019-03-11T00:49:34.919Z,7.66
2019-03-11T00:52:06.233Z,7.72
2019-03-11T00:54:37.688Z,7.66
2019-03-11T00:57:09.169Z,7.76
2019-03-11T00:59:40.516Z,7.77
2019-03-11T01:02:11.914Z,7.80
2019-03-11T01:04:43.293Z,7.68
2019-03-11T01:07:14.653Z,7.68
2019-03-11T01:09:45.922Z,7.70
2019-03-11T01:12:17.199Z,7.71
2019-03-11T01:14:48.727Z,7.74
2019-03-11T01:17:20.007Z,7.69
2019-03-11T01:19:51.355Z,7.80
2019-03-11T01:22:22.594Z,7.82
2019-03-11T01:24:55.541Z,7.80
2019-03-11T01:27:26.823Z,7.80
2019-03-11T01:29:58.122Z,7.95
2019-03-11T01:32:29.422Z,7.79
2019-03-11T01:35:00.807Z,7.90
2019-03-11T01:37:32.048Z,7.86
2019-03-11T01:40:03.528Z,7.88
2019-03-11T01:42:35.291Z,7.83
2019-03-11T01:45:07.664Z,7.74
2019-03-11T01:47:38.899Z,7.70
2019-03-11T01:50:10.524Z,7.65
2019-03-11T01:52:41.869Z,7.68
2019-03-11T01:55:13.443Z,7.59
2019-03-11T01:57:44.689Z,7.65
2019-03-11T02:00:17.836Z,7.65
2019-03-11T02:02:49.162Z,7.57
2019-03-11T02:05:20.456Z,7.59
2019-03-11T02:07:51.780Z,7.56
2019-03-11T02:10:23.040Z,7.51
2019-03-11T02:12:54.382Z,7.53
2019-03-11T02:15:25.655Z,7.58
2019-03-11T02:17:57.894Z,7.45
2019-03-11T02:20:29.157Z,7.42
2019-03-11T02:23:00.503Z,7.39
2019-03-11T02:25:31.834Z,7.43
2019-03-11T02:28:03.246Z,7.50
2019-03-11T02:30:34.537Z,7.37
2019-03-11T02:33:06.115Z,7.01
2019-03-11T02:35:37.729Z,6.68
2019-03-11T02:38:09.021Z,6.53
2019-03-11T02:40:40.458Z,6.42
2019-03-11T02:43:11.700Z,6.30
2019-03-11T02:45:43.085Z,6.23
2019-03-11T02:48:14.320Z,6.18
2019-03-11T02:50:45.803Z,6.10
2019-03-11T02:53:17.085Z,6.10
2019-03-11T02:55:51.067Z,5.89
2019-03-11T02:58:21.437Z,5.82
2019-03-11T03:01:02.051Z,5.95
2019-03-11T03:03:41.679Z,5.94
2019-03-11T03:06:15.927Z,5.88
2019-03-11T03:08:47.226Z,5.82
2019-03-11T03:11:19.281Z,5.87
2019-03-11T03:13:50.617Z,5.88
2019-03-11T03:16:21.873Z,5.87
2019-03-11T03:18:53.231Z,5.85
2019-03-11T03:21:24.688Z,5.69
2019-03-11T03:23:55.922Z,5.73
2019-03-11T03:26:27.702Z,5.73
2019-03-11T03:28:59.196Z,5.78
2019-03-11T03:31:30.463Z,5.70
2019-03-11T03:34:01.754Z,5.63
2019-03-11T03:36:33.075Z,5.64
2019-03-11T03:39:06.171Z,5.72
2019-03-11T03:41:37.502Z,5.62
2019-03-11T03:44:08.754Z,5.61
2019-03-11T03:46:40.196Z,5.56
2019-03-11T03:49:11.490Z,5.73
2019-03-11T03:51:42.916Z,5.75
2019-03-11T03:54:14.244Z,5.57
2019-03-11T03:56:45.901Z,5.62
2019-03-11T03:59:17.155Z,5.61
2019-03-11T04:01:48.745Z,5.61
2019-03-11T04:04:19.980Z,5.52
2019-03-11T04:06:51.317Z,5.48
2019-03-11T04:09:22.645Z,5.52
2019-03-11T04:11:54.120Z,5.56
2019-03-11T04:14:25.357Z,5.46
2019-03-11T04:16:56.702Z,5.42
2019-03-11T04:19:29.602Z,5.37
2019-03-11T04:22:01.064Z,5.42
2019-03-11T04:24:34.020Z,5.36
2019-03-11T04:27:10.000Z,5.27
2019-03-11T04:29:41.402Z,5.21
2019-03-11T04:32:12.728Z,5.30
2019-03-11T04:34:43.971Z,5.20
2019-03-11T04:37:15.307Z,5.14
2019-03-11T04:39:46.647Z,5.18
2019-03-11T04:42:18.001Z,5.10
2019-03-11T04:44:49.321Z,5.03
2019-03-11T04:47:22.285Z,5.03
2019-03-11T04:49:53.541Z,5.14
2019-03-11T04:52:24.851Z,5.14
2019-03-11T04:54:57.906Z,5.26
2019-03-11T04:57:30.970Z,5.32
2019-03-11T05:00:02.301Z,5.18
2019-03-11T05:02:34.019Z,5.16
2019-03-11T05:05:05.537Z,5.36
2019-03-11T05:07:36.933Z,5.22
2019-03-11T05:10:09.170Z,5.23
2019-03-11T05:12:40.556Z,5.24
2019-03-11T05:15:12.861Z,5.07
2019-03-11T05:17:44.437Z,4.82
2019-03-11T05:20:15.737Z,4.93
2019-03-11T05:22:47.228Z,4.93
2019-03-11T05:25:18.610Z,4.87
2019-03-11T05:27:49.933Z,4.98
2019-03-11T05:30:21.207Z,4.90
2019-03-11T05:32:54.718Z,4.83
2019-03-11T05:35:26.156Z,4.85
2019-03-11T05:37:57.582Z,4.75
2019-03-11T05:40:29.029Z,4.88
2019-03-11T05:43:02.238Z,4.85
2019-03-11T05:45:33.859Z,4.82
2019-03-11T05:48:05.225Z,4.85
2019-03-11T05:50:36.460Z,4.82
2019-03-11T05:53:08.151Z,4.96
2019-03-11T05:55:39.579Z,5.03
2019-03-11T05:58:10.820Z,5.08
2019-03-11T06:00:42.065Z,5.28
2019-03-11T06:03:13.397Z,5.41
2019-03-11T06:05:44.758Z,5.60
2019-03-11T06:08:22.152Z,5.75
2019-03-11T06:10:53.447Z,5.75
2019-03-11T06:13:35.358Z,5.84
2019-03-11T06:15:57.865Z,5.88
2019-03-11T06:18:44.605Z,5.94
2019-03-11T06:21:41.012Z,5.94
2019-03-11T06:24:12.434Z,6.01
2019-03-11T06:26:43.753Z,6.04
2019-03-11T06:29:15.088Z,6.17
2019-03-11T06:31:46.599Z,6.21
2019-03-11T06:34:17.991Z,6.26
2019-03-11T06:36:49.284Z,6.43
2019-03-11T06:39:20.643Z,6.45
2019-03-11T06:41:52.013Z,6.50
2019-03-11T06:44:23.331Z,6.51
2019-03-11T06:46:54.778Z,6.58
2019-03-11T06:49:26.077Z,6.67
2019-03-11T06:51:57.432Z,6.86
2019-03-11T06:54:29.151Z,6.78
2019-03-11T06:57:00.506Z,6.77
2019-03-11T06:59:31.988Z,6.81
2019-03-11T07:02:03.367Z,6.83
2019-03-11T07:04:34.746Z,6.85
2019-03-11T07:07:06.111Z,7.00
2019-03-11T07:09:37.428Z,7.10
2019-03-11T07:12:08.962Z,7.04
2019-03-11T07:14:40.199Z,7.27
2019-03-11T07:17:12.094Z,7.37
2019-03-11T07:19:43.428Z,7.36
2019-03-11T07:22:14.747Z,7.55
2019-03-11T07:24:46.321Z,7.58
2019-03-11T07:27:17.963Z,7.71
2019-03-11T07:29:49.289Z,7.92
2019-03-11T07:32:20.601Z,7.75
2019-03-11T07:34:52.163Z,7.69
2019-03-11T07:37:23.591Z,7.83
2019-03-11T07:39:54.921Z,7.78
2019-03-11T07:42:26.239Z,8.01
2019-03-11T07:44:57.585Z,7.91
2019-03-11T07:47:28.828Z,7.91
2019-03-11T07:50:00.336Z,7.85
2019-03-11T07:52:31.574Z,7.93
2019-03-11T07:55:03.164Z,7.94
2019-03-11T07:57:34.775Z,7.95
2019-03-11T08:00:09.030Z,7.69
2019-03-11T08:02:40.392Z,7.55
2019-03-11T08:05:12.523Z,7.49
2019-03-11T08:07:43.931Z,6.77
2019-03-11T08:10:15.249Z,7.44
2019-03-11T08:12:46.676Z,7.46
2019-03-11T08:15:18.279Z,7.24
2019-03-11T08:17:49.609Z,7.05
2019-03-11T08:20:20.959Z,7.03
2019-03-11T08:22:52.250Z,7.13
2019-03-11T08:25:23.588Z,7.22
2019-03-11T08:27:54.905Z,7.25
2019-03-11T08:30:26.281Z,7.31
2019-03-11T08:32:57.612Z,7.37
2019-03-11T08:35:28.982Z,7.51
2019-03-11T08:38:04.793Z,7.54
2019-03-11T08:40:33.246Z,7.70
2019-03-11T08:43:04.593Z,7.74
2019-03-11T08:45:35.997Z,7.74
2019-03-11T08:48:07.294Z,7.76
2019-03-11T08:50:38.869Z,7.78
2019-03-11T08:53:10.191Z,7.92
2019-03-11T08:55:41.668Z,8.10
2019-03-11T08:58:14.613Z,8.21
2019-03-11T09:00:48.078Z,8.37
2019-03-11T09:03:21.168Z,8.48
2019-03-11T09:05:54.231Z,8.40
2019-03-11T09:08:27.227Z,8.56
2019-03-11T09:10:59.164Z,8.64
2019-03-11T09:13:31.082Z,8.82
2019-03-11T09:16:03.304Z,8.92
2019-03-11T09:18:37.167Z,9.04
2019-03-11T09:21:09.587Z,9.35
2019-03-11T09:23:41.597Z,9.55
2019-03-11T09:26:13.494Z,9.73
2019-03-11T09:28:46.450Z,9.78
2019-03-11T09:31:18.361Z,9.94
2019-03-11T09:33:51.556Z,10.09
2019-03-11T09:36:24.329Z,10.17
2019-03-11T09:38:56.461Z,10.17
2019-03-11T09:41:30.456Z,10.25
2019-03-11T09:44:04.107Z,10.11
2019-03-11T09:46:37.589Z,10.15
2019-03-11T09:49:09.606Z,10.24
2019-03-11T09:51:41.690Z,10.21
2019-03-11T09:54:13.264Z,10.27
2019-03-11T09:56:45.563Z,10.27
2019-03-11T09:59:19.449Z,10.14
2019-03-11T10:01:51.596Z,10.07
2019-03-11T10:04:23.525Z,10.00
2019-03-11T10:06:55.531Z,9.87
2019-03-11T10:09:27.537Z,9.85
2019-03-11T10:12:00.601Z,9.67
2019-03-11T10:14:33.593Z,9.64
2019-03-11T10:17:05.569Z,9.49
2019-03-11T10:19:39.444Z,9.35
2019-03-11T10:22:12.533Z,9.35
2019-03-11T10:24:45.603Z,9.50
2019-03-11T10:27:19.801Z,9.67
2019-03-11T10:29:51.385Z,9.93
2019-03-11T10:32:24.557Z,9.96
2019-03-11T10:34:56.631Z,9.92
2019-03-11T10:37:29.629Z,9.76
2019-03-11T10:40:03.276Z,9.69
2019-03-11T10:42:35.670Z,9.49
2019-03-11T10:45:09.246Z,9.25
2019-03-11T10:47:41.794Z,9.01
2019-03-11T10:50:14.774Z,8.92
2019-03-11T10:52:47.829Z,8.73
2019-03-11T10:55:20.844Z,8.52
2019-03-11T10:57:53.905Z,8.39
2019-03-11T11:00:27.629Z,8.10
2019-03-11T11:02:59.989Z,7.97
2019-03-11T11:05:32.827Z,8.06
2019-03-11T11:08:06.042Z,8.27
2019-03-11T11:10:38.029Z,8.14
2019-03-11T11:13:12.733Z,7.69
2019-03-11T11:15:44.961Z,6.85
2019-03-11T11:18:17.894Z,6.28
2019-03-11T11:20:50.739Z,6.18
2019-03-11T11:23:23.794Z,5.96
2019-03-11T11:25:55.940Z,5.70
2019-03-11T11:28:28.047Z,5.33
2019-03-11T11:31:00.022Z,5.12
2019-03-11T11:33:33.141Z,4.96
2019-03-11T11:36:06.979Z,4.89
2019-03-11T11:38:38.713Z,4.90
2019-03-11T11:41:10.667Z,5.08
2019-03-11T11:43:41.970Z,5.17
2019-03-11T11:46:16.020Z,5.32
2019-03-11T11:48:47.783Z,5.44
2019-03-11T11:51:21.849Z,5.48
2019-03-11T11:53:54.118Z,5.62
2019-03-11T11:56:28.215Z,5.69
2019-03-11T11:59:00.077Z,5.75
2019-03-11T12:01:34.025Z,5.69
2019-03-11T12:04:07.138Z,5.58
2019-03-11T12:06:40.265Z,5.57
2019-03-11T12:09:13.364Z,5.69
2019-03-11T12:11:44.987Z,5.70
2019-03-11T12:14:19.004Z,5.68
2019-03-11T12:16:51.060Z,5.66
2019-03-11T12:19:22.387Z,5.68
2019-03-11T12:21:54.326Z,5.52
2019-03-11T12:24:27.119Z,5.57
2019-03-11T12:26:59.314Z,5.62
2019-03-11T12:29:31.402Z,5.61
2019-03-11T12:32:04.680Z,5.63
2019-03-11T12:34:37.932Z,5.63
2019-03-11T12:37:12.808Z,5.60
2019-03-11T12:39:45.266Z,5.57
2019-03-11T12:42:18.114Z,5.65
2019-03-11T12:44:53.623Z,5.80
2019-03-11T12:47:27.083Z,5.93
2019-03-11T12:50:01.161Z,6.22
2019-03-11T12:52:33.156Z,6.30
2019-03-11T12:55:05.463Z,6.30
2019-03-11T12:57:39.319Z,6.20
2019-03-11T13:00:13.469Z,6.35
2019-03-11T13:02:45.176Z,6.31
2019-03-11T13:05:18.458Z,6.44
2019-03-11T13:07:51.183Z,6.48
2019-03-11T13:10:22.593Z,6.50
2019-03-11T13:12:54.296Z,6.56
2019-03-11T13:15:27.628Z,6.87
2019-03-11T13:18:29.810Z,7.26
2019-03-11T13:21:08.025Z,7.40
2019-03-11T13:23:41.571Z,7.28
2019-03-11T13:26:12.665Z,7.15
2019-03-11T13:28:43.955Z,6.96
2019-03-11T13:31:15.567Z,6.97
2019-03-11T13:33:48.490Z,6.99
2019-03-11T13:36:20.406Z,6.97
2019-03-11T13:38:55.930Z,7.05
2019-03-11T13:41:27.598Z,7.04
2019-03-11T13:44:01.690Z,6.88
2019-03-11T13:46:35.529Z,6.78
2019-03-11T13:49:08.626Z,6.52
2019-03-11T13:51:41.932Z,5.83
2019-03-11T13:54:15.515Z,4.84
2019-03-11T13:56:48.533Z,4.26
2019-03-11T13:59:21.427Z,4.02
2019-03-11T14:01:54.660Z,3.89
2019-03-11T14:04:26.432Z,4.03
2019-03-11T14:07:00.468Z,3.99
2019-03-11T14:09:33.467Z,4.06
2019-03-11T14:12:07.606Z,4.26
2019-03-11T14:14:39.528Z,4.26
2019-03-11T14:17:12.594Z,4.26
2019-03-11T14:19:45.612Z,3.92
2019-03-11T14:22:19.638Z,4.09
2019-03-11T14:24:51.649Z,3.99
2019-03-11T14:27:24.702Z,3.77
2019-03-11T14:29:57.659Z,3.51
2019-03-11T14:32:29.618Z,3.31
2019-03-11T14:35:03.704Z,3.19
2019-03-11T14:37:38.334Z,3.22
2019-03-11T14:40:10.762Z,3.15
2019-03-11T14:42:42.199Z,3.23
2019-03-11T14:45:15.876Z,3.09
2019-03-11T14:47:48.686Z,3.05
2019-03-11T14:50:21.013Z,3.11
2019-03-11T14:52:54.953Z,3.20
2019-03-11T14:55:28.744Z,3.24
2019-03-11T14:58:03.159Z,3.51
2019-03-11T15:00:36.768Z,3.66
2019-03-11T15:03:09.927Z,3.75
2019-03-11T15:05:41.992Z,3.86
2019-03-11T15:08:13.662Z,4.05
2019-03-11T15:10:45.744Z,4.13
2019-03-11T15:13:20.005Z,4.23
2019-03-11T15:15:51.712Z,4.35
2019-03-11T15:18:23.063Z,4.40
2019-03-11T15:20:54.728Z,4.38
2019-03-11T15:23:27.736Z,4.38
2019-03-11T15:26:00.848Z,4.48
2019-03-11T15:28:34.476Z,4.43
2019-03-11T15:31:10.811Z,4.52
2019-03-11T15:33:40.295Z,4.41
2019-03-11T15:36:11.890Z,4.54
2019-03-11T15:38:47.458Z,4.54
2019-03-11T15:41:18.949Z,4.54
2019-03-11T15:43:52.080Z,4.66
2019-03-11T15:46:23.363Z,4.76
2019-03-11T15:48:55.109Z,4.67
2019-03-11T15:51:36.194Z,4.73
2019-03-11T15:54:01.319Z,4.72
2019-03-11T15:56:33.990Z,4.66
2019-03-11T15:59:07.766Z,4.59
2019-03-11T16:01:42.093Z,4.61
2019-03-11T16:04:15.117Z,4.49
2019-03-11T16:06:48.490Z,4.35
2019-03-11T16:09:20.237Z,4.43
2019-03-11T16:11:54.050Z,4.40
2019-03-11T16:14:27.642Z,4.40
2019-03-11T16:17:00.313Z,4.41
2019-03-11T16:19:33.345Z,4.20
2019-03-11T16:22:06.280Z,4.03
2019-03-11T16:24:40.198Z,3.85
2019-03-11T16:27:12.824Z,3.83
2019-03-11T16:29:45.111Z,3.17
2019-03-11T16:32:18.169Z,3.84
2019-03-11T16:34:51.748Z,3.78
2019-03-11T16:37:24.316Z,3.57
2019-03-11T16:39:58.658Z,3.47
2019-03-11T16:42:32.166Z,3.42
2019-03-11T16:45:07.093Z,3.33
2019-03-11T16:47:39.167Z,3.41
2019-03-11T16:50:15.026Z,3.27
2019-03-11T16:52:49.270Z,3.29
2019-03-11T16:55:23.481Z,3.28
2019-03-11T16:57:57.185Z,3.26
2019-03-11T17:00:34.515Z,3.30
2019-03-11T17:03:06.624Z,3.37
2019-03-11T17:05:38.549Z,3.41
2019-03-11T17:08:12.479Z,3.39
2019-03-11T17:10:45.356Z,3.43
2019-03-11T17:13:17.393Z,3.41
2019-03-11T17:15:51.322Z,3.45
2019-03-11T17:18:26.400Z,3.41
2019-03-11T17:20:58.573Z,3.48
2019-03-11T17:23:30.384Z,3.64
2019-03-11T17:26:03.304Z,3.61
2019-03-11T17:28:36.353Z,3.60
2019-03-11T17:31:11.315Z,3.37
2019-03-11T17:33:43.678Z,3.35
2019-03-11T17:36:17.160Z,3.39
2019-03-11T17:38:48.443Z,3.29
2019-03-11T17:41:21.890Z,3.14
2019-03-11T17:43:54.570Z,3.11
2019-03-11T17:46:29.144Z,3.06
2019-03-11T17:49:02.329Z,3.06
2019-03-11T17:51:35.590Z,2.97
2019-03-11T17:54:11.140Z,2.96
2019-03-11T17:56:42.526Z,2.89
2019-03-11T17:59:16.009Z,3.06
2019-03-11T18:01:48.682Z,3.14
2019-03-11T18:04:22.740Z,3.23
2019-03-11T18:06:54.736Z,3.18
2019-03-11T18:09:29.292Z,3.21
2019-03-11T18:12:02.620Z,3.25
2019-03-11T18:14:36.789Z,3.31
2019-03-11T18:17:09.730Z,3.39
2019-03-11T18:19:41.137Z,3.39
2019-03-11T18:22:15.654Z,3.45
2019-03-11T18:24:51.801Z,3.35
2019-03-11T18:27:27.271Z,3.32
2019-03-11T18:30:00.654Z,3.45
2019-03-11T18:32:32.869Z,3.36
2019-03-11T18:35:06.654Z,3.34
2019-03-11T18:37:39.982Z,3.30
2019-03-11T18:40:13.340Z,3.31
2019-03-11T18:42:45.690Z,3.18
2019-03-11T18:45:19.067Z,3.10
2019-03-11T18:47:50.952Z,3.13
2019-03-11T18:50:23.011Z,2.98
2019-03-11T18:52:55.102Z,2.85
2019-03-11T18:55:26.998Z,2.86
2019-03-11T18:58:00.973Z,2.81
2019-03-11T19:00:34.264Z,2.76
2019-03-11T19:03:07.123Z,2.65
2019-03-11T19:05:40.422Z,2.57
2019-03-11T19:08:12.961Z,2.59
2019-03-11T19:10:46.078Z,2.64
2019-03-11T19:13:18.219Z,2.56
2019-03-11T19:15:52.546Z,2.56
2019-03-11T19:18:23.975Z,2.57
2019-03-11T19:20:56.066Z,2.57
2019-03-11T19:23:28.442Z,2.61
2019-03-11T19:25:59.877Z,2.63
2019-03-11T19:28:33.038Z,2.58
2019-03-11T19:31:07.346Z,2.60
2019-03-11T19:33:41.536Z,2.62
2019-03-11T19:36:13.072Z,2.79
2019-03-11T19:38:46.820Z,2.78
2019-03-11T19:41:19.102Z,2.86
2019-03-11T19:43:52.042Z,2.89
2019-03-11T19:46:26.067Z,2.82
2019-03-11T19:48:58.247Z,2.88
2019-03-11T19:51:30.127Z,2.86
2019-03-11T19:54:03.441Z,2.89
2019-03-11T19:56:37.573Z,2.83
2019-03-11T19:59:10.166Z,3.05
2019-03-11T20:01:42.530Z,2.96
2019-03-11T20:04:16.125Z,2.96
2019-03-11T20:06:49.367Z,3.04
2019-03-11T20:09:22.192Z,3.11
2019-03-11T20:11:55.129Z,3.03
2019-03-11T20:14:28.154Z,2.99
2019-03-11T20:17:03.417Z,2.98
2019-03-11T20:19:37.796Z,3.02
2019-03-11T20:22:10.282Z,3.01
2019-03-11T20:24:42.776Z,3.04
2019-03-11T20:27:15.255Z,3.23
2019-03-11T20:29:49.378Z,3.07
2019-03-11T20:32:23.559Z,3.18
2019-03-11T20:34:55.622Z,3.11
2019-03-11T20:37:29.532Z,3.12
2019-03-11T20:40:02.513Z,3.11
2019-03-11T20:42:34.639Z,3.23
2019-03-11T20:45:08.412Z,3.26
2019-03-11T20:47:40.513Z,3.35
2019-03-11T20:50:13.893Z,3.32
2019-03-11T20:52:46.481Z,3.32
2019-03-11T20:55:19.678Z,3.26
2019-03-11T20:57:52.689Z,3.43
2019-03-11T21:00:25.486Z,3.37
2019-03-11T21:02:59.971Z,3.35
2019-03-11T21:05:31.647Z,3.37
2019-03-11T21:08:04.534Z,3.25
2019-03-11T21:10:37.561Z,3.17
2019-03-11T21:13:10.592Z,3.15
2019-03-11T21:15:44.209Z,3.12
2019-03-11T21:18:16.350Z,3.20
2019-03-11T21:20:48.671Z,3.17
2019-03-11T21:23:21.538Z,3.16
2019-03-11T21:25:56.815Z,3.19
2019-03-11T21:28:27.548Z,3.18
2019-03-11T21:31:00.606Z,3.09
2019-03-11T21:33:33.577Z,3.04
2019-03-11T21:36:06.903Z,3.07
2019-03-11T21:38:40.163Z,3.14
2019-03-11T21:41:12.811Z,3.08
2019-03-11T21:43:45.760Z,3.09
2019-03-11T21:46:17.682Z,3.04
2019-03-11T21:48:51.799Z,2.99
2019-03-11T21:51:24.852Z,2.98
2019-03-11T21:53:59.372Z,3.05
2019-03-11T21:56:31.596Z,3.05
2019-03-11T21:59:03.774Z,3.21
2019-03-11T22:01:36.739Z,3.05
2019-03-11T22:04:10.726Z,3.06
2019-03-11T22:06:42.562Z,3.05
2019-03-11T22:09:15.913Z,3.08
2019-03-11T22:11:48.697Z,3.11
2019-03-11T22:14:21.747Z,3.00
2019-03-11T22:16:56.612Z,3.01
2019-03-11T22:19:30.819Z,3.12
2019-03-11T22:22:03.918Z,3.04
2019-03-11T22:24:35.811Z,2.97
2019-03-11T22:27:09.961Z,2.95
2019-03-11T22:29:41.741Z,2.95
2019-03-11T22:32:14.776Z,3.10
2019-03-11T22:34:48.797Z,3.08
2019-03-11T22:37:21.894Z,3.07
2019-03-11T22:39:54.857Z,3.07
2019-03-11T22:42:27.846Z,3.09
2019-03-11T22:44:59.384Z,3.12
2019-03-11T22:47:30.792Z,3.08
2019-03-11T22:50:04.094Z,3.12
2019-03-11T22:52:36.025Z,3.12
2019-03-11T22:55:11.948Z,3.20
2019-03-11T22:57:43.237Z,3.08
2019-03-11T23:00:22.086Z,3.12
2019-03-11T23:02:55.282Z,3.09
2019-03-11T23:05:27.885Z,3.12
2019-03-11T23:08:01.056Z,3.08
2019-03-11T23:10:34.962Z,3.16
2019-03-11T23:13:08.703Z,3.22
2019-03-11T23:15:39.994Z,3.16
2019-03-11T23:18:13.203Z,3.16
2019-03-11T23:20:45.995Z,3.17
2019-03-11T23:23:19.240Z,3.30
2019-03-11T23:25:51.994Z,3.37
2019-03-11T23:28:25.060Z,3.28
2019-03-11T23:30:58.019Z,3.39
2019-03-11T23:33:31.023Z,3.31
2019-03-11T23:36:07.055Z,3.27
2019-03-11T23:38:38.027Z,3.48
2019-03-11T23:41:10.203Z,3.46
2019-03-11T23:43:42.723Z,3.52
2019-03-11T23:46:16.216Z,3.51
2019-03-11T23:48:49.155Z,3.57
2019-03-11T23:51:22.175Z,3.63
2019-03-11T23:53:55.127Z,3.55
2019-03-11T23:56:29.118Z,3.54
2019-03-11T23:59:01.426Z,3.49
